Time;durP1;ratioP1;P1;durP2;ratioP2;P2;SDS_P1;SDS_P2;PMS_P1;PMS_P2;Temp;Humidity;BMP_temperature;BMP_pressure;BME280_temperature;BME280_humidity;BME280_pressure;Samples;Min_cycle;Max_cycle;Signal;HPM_P1;HPM_P2
2022/09/24 00:01:13;;;;;;;7.87;7.17;;;19.00;56.50;;;;;;5004882;28;20451;-50
2022/09/24 00:03:40;;;;;;;7.87;6.83;;;19.10;56.60;;;;;;5003267;28;20449;-46
2022/09/24 00:06:07;;;;;;;9.20;8.00;;;19.10;56.40;;;;;;5001528;28;20448;-51
2022/09/24 00:08:33;;;;;;;9.93;7.50;;;19.10;56.40;;;;;;5000341;28;20491;-47
2022/09/24 00:11:04;;;;;;;8.50;7.70;;;19.10;56.50;;;;;;5008430;28;20448;-48
2022/09/24 00:13:30;;;;;;;8.60;7.50;;;19.10;56.20;;;;;;5006307;28;20445;-49
2022/09/24 00:16:02;;;;;;;8.00;7.20;;;19.20;56.10;;;;;;5006244;28;20455;-47
2022/09/24 00:18:28;;;;;;;7.63;6.93;;;19.20;56.20;;;;;;5008745;28;20895;-47
2022/09/24 00:20:53;;;;;;;8.90;7.03;;;19.10;56.30;;;;;;5004064;28;20510;-50
2022/09/24 00:23:19;;;;;;;7.73;7.03;;;19.10;56.30;;;;;;5007850;28;20225;-47
2022/09/24 00:28:31;;;;;;;8.37;7.57;;;18.80;56.70;;;;;;5010212;28;20210;-47
2022/09/24 00:30:58;;;;;;;8.30;7.60;;;18.60;57.80;;;;;;5009606;28;20440;-47
2022/09/24 00:33:25;;;;;;;9.00;8.03;;;18.60;57.90;;;;;;5001268;28;20572;-49
2022/09/24 00:35:51;;;;;;;7.70;7.00;;;18.70;57.80;;;;;;5005275;28;20445;-47
2022/09/24 00:38:17;;;;;;;9.07;7.60;;;18.70;57.60;;;;;;5005393;28;20484;-48
2022/09/24 00:40:43;;;;;;;9.27;8.07;;;18.70;57.80;;;;;;5009819;28;20536;-47
2022/09/24 00:43:29;;;;;;;8.40;7.53;;;18.60;57.70;;;;;;5004609;28;20528;-47
2022/09/24 00:46:11;;;;;;;7.70;6.90;;;18.40;58.20;;;;;;5012127;28;20197;-48
2022/09/24 00:48:39;;;;;;;7.53;6.83;;;18.20;58.50;;;;;;5009633;28;20783;-47
2022/09/24 00:51:06;;;;;;;8.87;7.73;;;18.10;59.10;;;;;;5010243;28;20440;-46
2022/09/24 00:53:32;;;;;;;7.77;7.03;;;18.00;59.50;;;;;;5012492;28;20440;-47
2022/09/24 00:55:59;;;;;;;8.03;7.30;;;18.00;59.40;;;;;;5011866;28;20448;-46
2022/09/24 00:58:27;;;;;;;7.60;6.67;;;18.00;59.40;;;;;;5011901;28;20580;-46
2022/09/24 01:01:04;;;;;;;7.70;6.97;;;18.10;59.80;;;;;;5008986;28;20875;-47
2022/09/24 01:03:32;;;;;;;8.37;7.50;;;18.10;59.40;;;;;;5005130;28;20967;-48
2022/09/24 01:05:58;;;;;;;8.20;7.37;;;18.30;59.00;;;;;;5010485;28;20503;-48
2022/09/24 01:08:24;;;;;;;8.77;8.07;;;18.40;58.50;;;;;;5010973;28;20433;-47
2022/09/24 01:11:08;;;;;;;8.00;7.40;;;18.40;58.10;;;;;;5002773;28;20990;-47
2022/09/24 01:13:54;;;;;;;8.93;7.40;;;18.50;57.90;;;;;;5006759;28;20713;-49
2022/09/24 01:16:28;;;;;;;8.67;7.80;;;18.50;57.70;;;;;;5005861;28;20483;-50
2022/09/24 01:19:17;;;;;;;8.53;7.73;;;18.50;58.00;;;;;;5010329;28;20822;-47
2022/09/24 01:22:02;;;;;;;12.27;9.63;;;18.20;58.20;;;;;;4997166;28;20488;-47
2022/09/24 01:24:54;;;;;;;8.67;7.53;;;18.20;58.80;;;;;;5003103;28;20452;-47
2022/09/24 01:27:40;;;;;;;8.23;7.50;;;18.30;58.40;;;;;;4986697;28;20488;-50
2022/09/24 01:30:10;;;;;;;7.93;7.20;;;18.30;58.40;;;;;;5008264;28;20441;-47
2022/09/24 01:32:37;;;;;;;11.40;8.07;;;18.30;58.30;;;;;;5008767;28;20449;-46
2022/09/24 01:35:18;;;;;;;8.70;7.83;;;18.30;58.30;;;;;;5005730;28;20453;-49
2022/09/24 01:37:48;;;;;;;9.10;8.03;;;18.40;58.20;;;;;;5009099;28;20540;-47
2022/09/24 01:40:14;;;;;;;9.17;7.70;;;18.50;58.00;;;;;;5001323;28;20434;-47
2022/09/24 01:42:43;;;;;;;9.07;8.17;;;18.50;57.80;;;;;;5003686;28;20500;-47
2022/09/24 01:45:10;;;;;;;8.33;7.53;;;18.60;57.40;;;;;;5009206;28;20448;-46
2022/09/24 01:47:38;;;;;;;11.50;8.30;;;18.70;57.30;;;;;;5008253;28;20444;-51
2022/09/24 01:50:08;;;;;;;8.20;7.40;;;18.70;57.10;;;;;;5007453;28;20447;-47
2022/09/24 01:52:54;;;;;;;8.77;7.83;;;18.70;57.00;;;;;;5006743;28;20867;-48
2022/09/24 01:55:25;;;;;;;8.73;7.70;;;18.70;57.40;;;;;;5002271;28;21887;-47
2022/09/24 01:58:05;;;;;;;8.90;6.87;;;18.70;57.00;;;;;;4998926;28;20487;-47
2022/09/24 02:00:31;;;;;;;7.67;7.07;;;18.70;57.00;;;;;;5008585;28;20440;-48
2022/09/24 02:03:13;;;;;;;9.30;7.20;;;18.40;57.40;;;;;;5005082;28;20459;-50
2022/09/24 02:05:42;;;;;;;8.37;7.67;;;18.00;58.30;;;;;;5006985;28;20200;-49
2022/09/24 02:08:15;;;;;;;7.60;6.90;;;17.90;58.20;;;;;;5013859;28;20543;-51
2022/09/24 02:10:50;;;;;;;10.00;7.50;;;17.90;58.50;;;;;;5006835;28;20477;-50
2022/09/24 02:13:18;;;;;;;7.43;6.83;;;17.70;58.90;;;;;;5004946;28;20437;-47
2022/09/24 02:15:48;;;;;;;8.60;7.80;;;17.70;59.00;;;;;;5005948;28;20493;-51
2022/09/24 02:18:18;;;;;;;8.97;8.07;;;17.60;59.00;;;;;;4999286;28;20539;-47
2022/09/24 02:20:45;;;;;;;9.03;8.20;;;17.60;59.10;;;;;;5002381;28;20449;-47
2022/09/24 02:23:14;;;;;;;7.83;7.03;;;17.60;59.10;;;;;;5004066;28;20897;-47
2022/09/24 02:25:51;;;;;;;9.70;7.27;;;17.30;59.50;;;;;;4998945;28;20511;-46
2022/09/24 02:28:17;;;;;;;10.37;7.30;;;17.10;60.50;;;;;;5001198;28;20456;-49
2022/09/24 02:30:50;;;;;;;7.70;7.00;;;16.80;61.90;;;;;;5001237;28;20445;-47
2022/09/24 02:36:02;;;;;;;8.07;7.37;;;17.00;61.10;;;;;;5002840;28;20990;-47
2022/09/24 02:38:27;;;;;;;8.30;7.60;;;17.00;60.80;;;;;;5006052;28;20723;-46
2022/09/24 02:40:54;;;;;;;8.40;7.70;;;17.10;60.50;;;;;;5009063;28;20543;-47
2022/09/24 02:43:19;;;;;;;8.60;7.80;;;17.00;61.10;;;;;;5006288;28;20198;-47
2022/09/24 02:45:45;;;;;;;8.17;7.47;;;16.90;61.40;;;;;;4997131;28;20464;-49
2022/09/24 02:48:10;;;;;;;8.93;7.37;;;17.00;61.30;;;;;;5002653;28;20194;-48
2022/09/24 02:50:36;;;;;;;8.57;7.87;;;17.00;61.00;;;;;;5008891;28;21097;-48
2022/09/24 02:53:02;;;;;;;8.13;7.30;;;17.10;61.10;;;;;;5009569;28;20728;-46
2022/09/24 02:55:27;;;;;;;7.40;6.80;;;17.10;60.80;;;;;;5008912;28;20196;-48
2022/09/24 02:57:53;;;;;;;7.53;6.90;;;17.10;60.80;;;;;;5011341;28;20252;-51
2022/09/24 03:00:19;;;;;;;11.67;6.87;;;17.10;61.00;;;;;;5006407;28;20205;-47
2022/09/24 03:02:48;;;;;;;8.20;7.30;;;17.10;61.20;;;;;;4995539;28;20440;-48
2022/09/24 03:05:17;;;;;;;9.07;8.20;;;17.10;61.40;;;;;;5002228;28;20444;-47
2022/09/24 03:07:43;;;;;;;7.97;7.27;;;17.00;61.40;;;;;;5003699;28;20444;-47
2022/09/24 03:10:09;;;;;;;9.10;8.20;;;17.00;61.20;;;;;;5009559;28;20437;-48
2022/09/24 03:12:35;;;;;;;8.47;7.13;;;16.90;61.40;;;;;;4997309;28;20441;-47
2022/09/24 03:15:01;;;;;;;8.13;7.53;;;16.80;62.40;;;;;;5008568;28;20445;-47
2022/09/24 03:17:27;;;;;;;9.43;6.90;;;16.50;62.90;;;;;;5005778;28;20498;-50
2022/09/24 03:19:53;;;;;;;8.10;7.03;;;16.50;63.50;;;;;;5007585;28;20297;-51
2022/09/24 03:22:19;;;;;;;8.63;7.87;;;16.70;62.90;;;;;;5005146;28;20576;-52
2022/09/24 03:24:44;;;;;;;8.43;7.33;;;16.80;62.30;;;;;;5006931;28;20206;-52
2022/09/24 03:27:11;;;;;;;7.63;7.00;;;16.90;62.00;;;;;;5007438;28;20197;-52
2022/09/24 03:32:21;;;;;;;8.00;7.10;;;17.00;61.90;;;;;;4995858;28;20459;-51
2022/09/24 03:34:46;;;;;;;8.13;7.43;;;16.90;62.20;;;;;;5005779;28;20436;-52
2022/09/24 03:37:12;;;;;;;10.10;7.60;;;16.80;62.40;;;;;;5005531;28;20241;-51
2022/09/24 03:39:38;;;;;;;8.23;7.37;;;16.70;62.70;;;;;;5002601;28;20217;-51
2022/09/24 03:42:03;;;;;;;8.53;7.63;;;16.70;62.90;;;;;;5006707;28;20289;-51
2022/09/24 03:44:29;;;;;;;8.97;8.07;;;16.60;62.90;;;;;;5006496;28;20190;-51
2022/09/24 03:46:55;;;;;;;10.13;7.80;;;16.70;62.90;;;;;;5004629;28;20224;-50
2022/09/24 03:49:22;;;;;;;7.27;6.67;;;16.60;63.10;;;;;;5008253;28;20186;-51
2022/09/24 03:51:49;;;;;;;8.93;7.53;;;16.40;63.90;;;;;;5005719;28;20949;-51
2022/09/24 03:54:15;;;;;;;8.17;7.47;;;16.30;65.10;;;;;;5006791;28;20437;-51
2022/09/24 03:56:41;;;;;;;9.60;8.77;;;16.30;64.80;;;;;;4997508;28;20524;-50
2022/09/24 03:59:11;;;;;;;9.37;8.47;;;16.30;64.90;;;;;;5000741;28;20806;-51
2022/09/24 04:01:37;;;;;;;8.20;7.50;;;16.30;65.10;;;;;;5005660;28;20555;-51
2022/09/24 04:04:03;;;;;;;8.90;8.03;;;16.40;64.90;;;;;;5006743;28;20437;-49
2022/09/24 04:06:30;;;;;;;7.87;7.13;;;16.50;64.40;;;;;;5007846;28;20444;-52
2022/09/24 04:08:56;;;;;;;8.00;7.20;;;16.50;64.10;;;;;;4999822;28;21327;-50
2022/09/24 04:11:23;;;;;;;9.17;8.30;;;16.50;64.10;;;;;;5003709;28;20928;-50
2022/09/24 04:13:48;;;;;;;8.50;7.77;;;16.30;64.50;;;;;;5009792;28;20535;-51
2022/09/24 04:16:14;;;;;;;9.37;7.70;;;16.30;65.20;;;;;;5009491;28;20527;-52
2022/09/24 04:18:40;;;;;;;9.17;8.27;;;16.30;65.00;;;;;;5010502;28;20221;-51
2022/09/24 04:21:05;;;;;;;8.80;7.30;;;16.30;65.00;;;;;;5019150;28;20198;-47
2022/09/24 04:23:31;;;;;;;7.60;6.90;;;16.30;65.10;;;;;;5009928;28;20233;-47
2022/09/24 04:26:00;;;;;;;7.77;7.03;;;16.30;65.20;;;;;;5012923;28;20664;-51
2022/09/24 04:28:27;;;;;;;8.90;6.93;;;16.40;64.80;;;;;;5006100;28;20194;-48
2022/09/24 04:30:53;;;;;;;9.10;7.50;;;16.30;65.10;;;;;;5009597;28;20455;-52
2022/09/24 04:33:18;;;;;;;8.17;7.53;;;16.20;65.20;;;;;;5006141;28;20449;-50
2022/09/24 04:35:44;;;;;;;8.80;8.00;;;16.30;65.30;;;;;;5003418;28;20194;-48
2022/09/24 04:38:10;;;;;;;9.30;7.97;;;16.40;65.10;;;;;;5011999;28;20639;-52
2022/09/24 04:40:36;;;;;;;9.07;8.20;;;16.40;64.70;;;;;;5003802;28;20476;-48
2022/09/24 04:43:03;;;;;;;8.70;7.90;;;16.20;65.40;;;;;;5006592;28;20194;-51
2022/09/24 04:45:28;;;;;;;8.20;7.40;;;16.40;65.40;;;;;;5007834;28;20603;-51
2022/09/24 04:47:57;;;;;;;9.80;8.80;;;16.60;64.90;;;;;;5010244;28;20531;-52
2022/09/24 04:50:24;;;;;;;10.43;8.57;;;16.80;64.30;;;;;;5009521;28;20193;-50
2022/09/24 04:52:50;;;;;;;9.10;7.43;;;16.80;63.60;;;;;;5007255;28;20437;-47
2022/09/24 04:55:16;;;;;;;10.20;8.30;;;16.60;64.00;;;;;;5008408;28;20459;-46
2022/09/24 04:57:44;;;;;;;8.37;7.53;;;16.50;64.10;;;;;;5012665;28;20222;-49
2022/09/24 05:00:14;;;;;;;9.47;8.63;;;16.50;64.60;;;;;;4997831;28;20202;-48
2022/09/24 05:02:40;;;;;;;12.20;8.67;;;16.40;64.60;;;;;;5007585;28;20440;-51
2022/09/24 05:05:06;;;;;;;8.57;7.57;;;16.40;65.10;;;;;;5004648;28;20948;-47
2022/09/24 05:07:31;;;;;;;9.20;8.20;;;16.30;65.00;;;;;;5007704;28;20440;-48
2022/09/24 05:09:57;;;;;;;10.37;7.33;;;16.40;64.80;;;;;;5012130;28;20202;-49
2022/09/24 05:12:23;;;;;;;8.70;7.80;;;16.10;65.50;;;;;;5009071;28;20198;-51
2022/09/24 05:14:48;;;;;;;21.10;8.07;;;16.10;66.20;;;;;;5004409;28;20210;-46
2022/09/24 05:17:14;;;;;;;22.47;8.90;;;16.20;66.40;;;;;;5010483;28;20217;-50
2022/09/24 05:19:40;;;;;;;12.50;7.93;;;16.30;66.10;;;;;;5010739;28;20600;-47
2022/09/24 05:22:05;;;;;;;11.70;8.33;;;16.40;66.20;;;;;;5004846;28;20816;-49
2022/09/24 05:24:31;;;;;;;8.97;8.07;;;16.60;65.80;;;;;;5002068;28;20252;-50
2022/09/24 05:27:09;;;;;;;9.93;7.97;;;16.70;64.40;;;;;;5011027;28;20202;-49
2022/09/24 05:29:42;;;;;;;8.73;7.93;;;16.80;64.30;;;;;;5000898;28;20757;-47
2022/09/24 05:32:14;;;;;;;9.87;7.50;;;17.00;63.70;;;;;;5008161;28;20507;-47
2022/09/24 05:34:42;;;;;;;8.33;7.63;;;17.10;63.30;;;;;;5006907;28;20496;-46
2022/09/24 05:37:09;;;;;;;8.43;7.63;;;17.30;62.70;;;;;;5009826;28;20563;-51
2022/09/24 05:39:34;;;;;;;10.90;7.90;;;17.50;62.00;;;;;;5003907;28;20484;-47
2022/09/24 05:42:03;;;;;;;8.87;7.97;;;17.60;61.40;;;;;;5011333;28;20476;-50
2022/09/24 05:44:30;;;;;;;8.73;7.83;;;17.60;60.40;;;;;;5011140;28;20674;-46
2022/09/24 05:46:56;;;;;;;7.77;7.07;;;17.60;60.20;;;;;;5010155;28;20453;-50
2022/09/24 05:49:22;;;;;;;28.73;10.70;;;17.60;60.00;;;;;;5007692;28;20448;-52
2022/09/24 05:51:50;;;;;;;16.57;13.27;;;17.70;60.10;;;;;;5011073;28;20417;-47
2022/09/24 05:54:17;;;;;;;18.03;14.97;;;17.80;59.80;;;;;;5009231;28;20198;-47
2022/09/24 05:56:44;;;;;;;15.27;13.33;;;17.70;59.80;;;;;;5011365;28;20944;-47
2022/09/24 05:59:10;;;;;;;10.37;8.37;;;17.70;60.10;;;;;;5010296;28;20441;-47
2022/09/24 06:01:36;;;;;;;9.50;8.60;;;17.60;59.80;;;;;;5011030;28;20496;-49
2022/09/24 06:04:01;;;;;;;11.27;7.83;;;17.70;59.90;;;;;;5011004;28;20449;-49
2022/09/24 06:06:27;;;;;;;8.50;7.67;;;17.70;59.80;;;;;;5011990;28;20194;-48
2022/09/24 06:08:54;;;;;;;8.97;7.47;;;17.80;59.70;;;;;;5015817;28;20197;-47
2022/09/24 06:11:21;;;;;;;9.33;8.37;;;17.80;59.40;;;;;;5008428;28;20439;-49
2022/09/24 06:13:47;;;;;;;9.23;7.00;;;17.90;59.30;;;;;;5010666;28;20476;-48
2022/09/24 06:16:13;;;;;;;8.57;7.60;;;17.90;59.40;;;;;;5008955;28;20452;-48
2022/09/24 06:18:40;;;;;;;7.83;7.13;;;17.90;59.30;;;;;;5011089;28;20897;-50
2022/09/24 06:21:09;;;;;;;8.57;7.83;;;17.90;59.30;;;;;;5007772;28;20194;-46
2022/09/24 06:23:35;;;;;;;9.70;8.90;;;17.80;60.30;;;;;;5008969;28;20480;-49
2022/09/24 06:26:01;;;;;;;8.70;7.80;;;17.80;59.50;;;;;;5023489;28;20452;-47
2022/09/24 06:28:27;;;;;;;12.60;8.30;;;17.70;60.10;;;;;;5010140;28;20974;-47
2022/09/24 06:30:53;;;;;;;8.87;8.17;;;17.90;59.90;;;;;;5007960;28;20453;-49
2022/09/24 06:33:19;;;;;;;11.90;9.70;;;17.90;59.80;;;;;;5011088;28;20482;-46
2022/09/24 06:35:45;;;;;;;9.27;8.30;;;18.00;59.30;;;;;;5008901;28;20229;-49
2022/09/24 06:38:13;;;;;;;9.70;8.90;;;18.00;59.40;;;;;;5008842;28;20226;-47
2022/09/24 06:40:40;;;;;;;9.10;8.20;;;18.00;59.80;;;;;;5009407;28;20456;-50
2022/09/24 06:43:06;;;;;;;9.33;8.20;;;18.10;59.70;;;;;;5006695;28;20467;-47
2022/09/24 06:45:32;;;;;;;9.97;8.40;;;18.00;59.80;;;;;;5006771;28;20766;-47
2022/09/24 06:47:59;;;;;;;12.47;9.30;;;17.90;59.80;;;;;;5011207;28;20432;-47
2022/09/24 06:50:27;;;;;;;12.00;8.63;;;17.80;60.20;;;;;;5008368;28;20202;-49
2022/09/24 06:52:54;;;;;;;9.43;8.60;;;18.00;60.20;;;;;;5007882;28;20806;-47
2022/09/24 06:55:19;;;;;;;10.60;8.57;;;18.10;59.50;;;;;;5007185;28;20452;-47
2022/09/24 06:57:45;;;;;;;10.00;9.00;;;18.10;59.20;;;;;;5009707;28;20492;-48
2022/09/24 07:00:12;;;;;;;11.70;8.33;;;18.10;59.40;;;;;;5008224;28;20198;-48
2022/09/24 07:02:39;;;;;;;8.60;7.70;;;18.20;59.30;;;;;;5008310;28;20255;-47
2022/09/24 07:05:05;;;;;;;7.93;7.23;;;18.30;58.90;;;;;;5009909;28;20445;-48
2022/09/24 07:07:34;;;;;;;10.17;7.93;;;18.30;59.00;;;;;;5009667;28;20480;-46
2022/09/24 07:10:06;;;;;;;9.00;8.20;;;18.40;58.90;;;;;;5006120;28;20808;-50
2022/09/24 07:12:34;;;;;;;8.37;7.57;;;18.50;58.60;;;;;;5002080;28;20437;-49
2022/09/24 07:15:00;;;;;;;9.90;8.20;;;18.50;58.40;;;;;;5007667;28;20448;-47
2022/09/24 07:17:26;;;;;;;9.60;8.30;;;18.60;58.40;;;;;;5008822;28;20525;-46
2022/09/24 07:19:52;;;;;;;9.23;8.13;;;18.70;58.30;;;;;;5009943;28;20445;-47
2022/09/24 07:22:18;;;;;;;8.80;8.00;;;18.70;58.20;;;;;;5009408;28;20491;-47
2022/09/24 07:24:44;;;;;;;11.33;8.47;;;18.80;58.00;;;;;;5010913;28;21006;-46
2022/09/24 07:27:11;;;;;;;11.50;8.40;;;18.90;57.80;;;;;;5006541;28;20521;-48
2022/09/24 07:29:37;;;;;;;9.57;8.67;;;19.00;57.60;;;;;;5004044;28;20436;-47
2022/09/24 07:32:03;;;;;;;9.27;8.30;;;18.90;57.90;;;;;;5006783;28;20798;-47
2022/09/24 07:34:29;;;;;;;8.70;8.00;;;18.70;58.40;;;;;;5007484;28;20786;-51
2022/09/24 07:36:55;;;;;;;9.13;8.33;;;18.50;58.80;;;;;;5008698;28;20447;-46
2022/09/24 07:39:22;;;;;;;10.90;9.10;;;18.70;58.90;;;;;;5013321;28;20190;-46
2022/09/24 07:41:48;;;;;;;10.50;8.50;;;18.80;58.70;;;;;;5015869;28;20833;-48
2022/09/24 07:44:13;;;;;;;7.67;6.97;;;19.00;58.20;;;;;;5011503;28;20451;-47
2022/09/24 07:46:39;;;;;;;9.43;8.53;;;19.20;58.00;;;;;;5011309;28;20190;-47
2022/09/24 07:49:05;;;;;;;9.73;7.73;;;19.30;57.60;;;;;;5005934;28;20197;-47
2022/09/24 07:51:30;;;;;;;9.10;8.00;;;19.40;57.30;;;;;;5008514;28;20202;-47
2022/09/24 07:53:57;;;;;;;7.90;7.13;;;19.40;57.10;;;;;;5006494;28;20204;-46
2022/09/24 07:56:24;;;;;;;9.20;8.33;;;19.50;56.80;;;;;;5007279;28;20662;-46
2022/09/24 07:58:51;;;;;;;10.77;8.30;;;19.60;56.60;;;;;;5000139;28;20507;-47
2022/09/24 08:01:17;;;;;;;8.47;7.63;;;19.60;56.40;;;;;;5006310;28;20440;-48
2022/09/24 08:03:46;;;;;;;11.90;10.80;;;19.70;56.30;;;;;;5007780;28;20444;-47
2022/09/24 08:06:12;;;;;;;10.97;9.80;;;19.60;56.30;;;;;;5006697;28;20456;-48
2022/09/24 08:08:39;;;;;;;9.10;8.30;;;19.30;57.00;;;;;;5003393;28;20437;-47
2022/09/24 08:11:05;;;;;;;9.73;8.73;;;19.30;57.30;;;;;;5005413;28;20964;-47
2022/09/24 08:13:32;;;;;;;8.90;8.10;;;19.40;57.10;;;;;;5011038;28;20429;-48
2022/09/24 08:15:58;;;;;;;8.63;7.80;;;19.50;56.80;;;;;;5008947;28;20985;-50
2022/09/24 08:18:24;;;;;;;9.83;8.93;;;19.60;56.60;;;;;;5008451;28;20858;-50
2022/09/24 08:20:50;;;;;;;11.23;8.17;;;19.70;56.10;;;;;;5012267;28;20424;-47
2022/09/24 08:23:15;;;;;;;9.47;8.30;;;19.80;56.30;;;;;;5004101;28;20480;-48
2022/09/24 08:25:41;;;;;;;8.40;7.60;;;20.00;56.10;;;;;;5010692;28;20653;-46
2022/09/24 08:28:07;;;;;;;10.00;9.00;;;20.00;56.10;;;;;;5008643;28;20206;-50
2022/09/24 08:30:34;;;;;;;10.83;8.47;;;20.10;55.70;;;;;;5007041;28;20194;-46
2022/09/24 08:33:00;;;;;;;8.93;7.90;;;20.10;55.50;;;;;;5026402;28;20518;-47
2022/09/24 08:35:26;;;;;;;9.30;8.23;;;20.00;56.00;;;;;;4999221;28;20537;-46
2022/09/24 08:37:54;;;;;;;9.50;8.60;;;19.80;56.10;;;;;;5015627;28;20234;-47
2022/09/24 08:40:24;;;;;;;8.50;7.70;;;19.90;56.30;;;;;;5005776;28;20190;-49
2022/09/24 08:43:04;;;;;;;9.97;9.07;;;20.00;56.30;;;;;;5006053;28;20464;-46
2022/09/24 08:48:30;;;;;;;11.47;8.50;;;20.20;55.80;;;;;;5003059;28;20460;-48
2022/09/24 08:51:01;;;;;;;16.40;8.77;;;20.40;55.70;;;;;;5007580;28;20445;-46
2022/09/24 08:54:01;;;;;;;10.80;8.67;;;20.50;55.30;;;;;;5005507;28;20449;-46
2022/09/24 08:56:31;;;;;;;12.83;8.10;;;20.70;55.00;;;;;;5005414;28;20452;-46
2022/09/24 08:59:15;;;;;;;9.03;8.10;;;20.60;54.90;;;;;;5008725;28;20495;-47
2022/09/24 09:01:50;;;;;;;9.47;8.67;;;20.40;55.20;;;;;;5014264;28;20439;-46
2022/09/24 09:04:22;;;;;;;12.27;8.13;;;20.50;55.60;;;;;;5006098;28;20563;-48
2022/09/24 09:07:11;;;;;;;8.73;7.93;;;20.60;55.30;;;;;;5008598;28;20848;-47
2022/09/24 09:10:09;;;;;;;7.70;6.90;;;20.80;55.50;;;;;;5012250;28;20448;-47
2022/09/24 09:12:40;;;;;;;8.43;7.60;;;20.80;55.60;;;;;;5006892;28;20455;-48
2022/09/24 09:15:10;;;;;;;10.40;8.53;;;21.00;55.90;;;;;;5004827;28;20453;-46
2022/09/24 09:18:15;;;;;;;9.43;8.10;;;21.20;55.40;;;;;;5011628;28;20983;-46
2022/09/24 09:20:44;;;;;;;8.23;7.40;;;21.40;54.20;;;;;;4997509;28;20456;-46
2022/09/24 09:23:20;;;;;;;8.50;7.70;;;21.60;53.80;;;;;;5013489;28;20534;-48
2022/09/24 09:25:55;;;;;;;7.40;6.80;;;21.70;53.20;;;;;;5012283;28;20502;-46
2022/09/24 09:28:21;;;;;;;7.10;6.40;;;21.90;53.00;;;;;;5010633;28;20429;-47
2022/09/24 09:30:57;;;;;;;7.17;6.57;;;22.10;53.20;;;;;;5008496;28;20459;-46
2022/09/24 09:33:53;;;;;;;6.90;6.30;;;22.30;52.10;;;;;;5006766;28;20201;-46
2022/09/24 09:36:18;;;;;;;6.23;5.73;;;22.50;51.00;;;;;;5003590;28;20579;-49
2022/09/24 09:39:07;;;;;;;8.83;6.63;;;22.50;49.80;;;;;;5002146;28;20495;-47
2022/09/24 09:41:39;;;;;;;7.13;6.43;;;22.60;49.90;;;;;;5001589;28;20198;-47
2022/09/24 09:44:14;;;;;;;7.37;6.20;;;22.70;50.30;;;;;;5012351;28;20802;-46
2022/09/24 09:46:50;;;;;;;7.73;6.93;;;22.90;50.10;;;;;;5009559;28;20439;-50
2022/09/24 09:49:17;;;;;;;8.17;7.47;;;22.90;50.00;;;;;;5012443;28;20955;-46
2022/09/24 09:51:47;;;;;;;7.60;6.90;;;23.00;50.00;;;;;;5007530;28;20809;-48
2022/09/24 09:54:12;;;;;;;10.30;8.60;;;23.00;50.00;;;;;;5010649;28;20435;-46
2022/09/24 09:56:44;;;;;;;9.57;7.27;;;23.00;50.30;;;;;;5008218;28;20444;-46
2022/09/24 09:59:10;;;;;;;8.40;7.00;;;23.10;51.20;;;;;;5010713;28;20249;-46
2022/09/24 10:01:39;;;;;;;7.83;6.80;;;23.20;51.00;;;;;;5005347;28;20527;-46
2022/09/24 10:04:06;;;;;;;6.53;5.93;;;23.20;50.60;;;;;;5010425;28;20198;-46
2022/09/24 10:06:33;;;;;;;6.83;6.20;;;23.30;50.90;;;;;;5011023;28;20464;-46
2022/09/24 10:09:25;;;;;;;7.73;6.93;;;23.00;50.50;;;;;;5013303;28;20432;-48
2022/09/24 10:11:51;;;;;;;6.60;6.00;;;23.10;50.20;;;;;;5003190;28;20465;-46
2022/09/24 10:14:18;;;;;;;8.77;6.10;;;23.10;50.10;;;;;;5011915;28;20447;-48
2022/09/24 10:16:51;;;;;;;6.67;6.07;;;23.20;50.10;;;;;;5011869;28;20309;-46
2022/09/24 10:19:23;;;;;;;6.50;5.90;;;23.10;50.10;;;;;;5010430;28;20827;-46
2022/09/24 10:21:51;;;;;;;7.07;6.47;;;23.00;50.70;;;;;;5006793;28;20576;-46
2022/09/24 10:24:25;;;;;;;7.23;6.33;;;22.90;50.70;;;;;;5010320;28;20454;-47
2022/09/24 10:26:52;;;;;;;6.33;5.73;;;23.00;50.80;;;;;;5007336;28;20445;-46
2022/09/24 10:32:23;;;;;;;5.80;4.40;;;23.10;51.10;;;;;;5006829;28;20534;-47
2022/09/24 10:35:00;;;;;;;3.67;3.37;;;22.80;52.20;;;;;;5010625;28;20510;-47
2022/09/24 10:37:27;;;;;;;4.20;3.90;;;22.60;52.80;;;;;;5008575;28;20480;-47
2022/09/24 10:39:57;;;;;;;4.20;3.80;;;22.70;52.90;;;;;;5011366;28;20568;-47
2022/09/24 10:42:25;;;;;;;4.83;4.43;;;22.70;52.80;;;;;;5006815;28;20857;-48
2022/09/24 10:44:52;;;;;;;8.27;7.20;;;22.70;53.00;;;;;;5007820;28;22197;-47
2022/09/24 10:47:22;;;;;;;6.30;4.93;;;22.70;52.50;;;;;;5008638;28;20453;-47
2022/09/24 10:50:03;;;;;;;5.30;4.80;;;22.50;53.00;;;;;;5012387;28;20520;-47
2022/09/24 10:52:52;;;;;;;6.90;5.53;;;22.50;53.20;;;;;;5007206;28;20813;-48
2022/09/24 10:55:41;;;;;;;6.13;5.27;;;22.60;53.40;;;;;;5007320;28;20862;-47
2022/09/24 10:58:31;;;;;;;4.80;3.90;;;22.70;53.60;;;;;;5010734;28;21286;-48
2022/09/24 11:01:31;;;;;;;3.13;2.93;;;22.60;53.70;;;;;;5008383;28;20796;-48
2022/09/24 11:04:08;;;;;;;3.83;3.30;;;22.60;53.90;;;;;;5009212;28;20452;-48
2022/09/24 11:06:45;;;;;;;4.20;3.80;;;22.70;53.70;;;;;;5003070;28;20483;-51
2022/09/24 11:09:15;;;;;;;3.53;3.23;;;22.70;53.50;;;;;;5010101;28;20562;-51
2022/09/24 11:12:08;;;;;;;4.30;3.90;;;22.80;53.70;;;;;;4999513;28;20438;-50
2022/09/24 11:15:13;;;;;;;4.77;3.80;;;22.70;53.90;;;;;;5007787;28;20453;-49
2022/09/24 11:17:56;;;;;;;3.70;3.40;;;22.70;53.80;;;;;;5009949;28;20492;-48
2022/09/24 11:21:15;;;;;;;3.83;3.53;;;22.90;54.00;;;;;;5009558;28;20463;-51
2022/09/24 11:24:26;;;;;;;3.93;3.63;;;22.90;54.10;;;;;;4945513;28;20456;-51
2022/09/24 11:27:26;;;;;;;3.30;3.07;;;22.90;53.90;;;;;;5010629;28;20452;-51
2022/09/24 11:30:08;;;;;;;3.70;3.10;;;23.00;53.90;;;;;;5006029;28;20526;-52
2022/09/24 11:32:50;;;;;;;3.77;3.47;;;22.80;54.20;;;;;;5010297;28;20452;-52
2022/09/24 11:35:55;;;;;;;3.87;3.57;;;22.80;54.10;;;;;;5010490;28;20452;-50
2022/09/24 11:38:47;;;;;;;3.97;3.57;;;22.90;54.20;;;;;;5006775;28;20535;-48
2022/09/24 11:41:30;;;;;;;4.23;3.93;;;23.00;54.60;;;;;;5009373;28;20559;-48
2022/09/24 11:44:12;;;;;;;4.10;3.70;;;23.00;54.10;;;;;;5009899;28;20975;-47
2022/09/24 11:47:25;;;;;;;6.10;3.63;;;23.00;54.50;;;;;;5002071;28;20461;-51
2022/09/24 11:50:15;;;;;;;3.87;3.47;;;23.00;54.40;;;;;;4980333;28;20511;-51
2022/09/24 11:52:48;;;;;;;4.47;3.10;;;23.10;55.00;;;;;;5005273;28;21223;-48
2022/09/24 11:55:36;;;;;;;3.27;2.97;;;23.00;56.00;;;;;;5010298;28;20491;-48
2022/09/24 11:58:08;;;;;;;5.63;2.97;;;23.00;56.40;;;;;;5009643;28;20492;-48
2022/09/24 12:00:39;;;;;;;3.30;3.00;;;23.10;56.60;;;;;;5008450;28;21285;-48
2022/09/24 12:03:19;;;;;;;3.10;2.90;;;23.10;57.20;;;;;;5005806;28;20441;-49
2022/09/24 12:06:01;;;;;;;5.00;2.80;;;23.10;57.40;;;;;;5008631;28;20452;-48
2022/09/24 12:09:00;;;;;;;3.00;2.57;;;23.00;57.10;;;;;;5014056;28;20459;-47
2022/09/24 12:11:41;;;;;;;2.60;2.40;;;23.00;57.30;;;;;;4975918;28;20464;-51
2022/09/24 12:14:30;;;;;;;2.70;2.50;;;22.90;57.00;;;;;;5007937;28;20996;-48
2022/09/24 12:17:02;;;;;;;2.40;2.20;;;22.90;56.70;;;;;;5026929;28;20494;-53
2022/09/24 12:19:34;;;;;;;2.80;2.60;;;22.80;57.20;;;;;;5005501;28;20456;-50
2022/09/24 12:22:02;;;;;;;9.03;5.03;;;22.80;57.30;;;;;;5007650;28;20481;-48
2022/09/24 12:24:40;;;;;;;3.10;2.80;;;22.80;57.10;;;;;;5008140;28;20995;-52
2022/09/24 12:27:13;;;;;;;2.90;2.60;;;22.40;58.10;;;;;;5001234;28;20457;-50
2022/09/24 12:33:12;;;;;;;3.43;3.13;;;22.50;58.30;;;;;;5011023;28;20468;-50
2022/09/24 12:36:00;;;;;;;3.07;2.87;;;22.50;58.10;;;;;;5007598;28;20835;-46
2022/09/24 12:38:41;;;;;;;3.00;2.80;;;22.50;58.60;;;;;;5012732;28;20487;-50
2022/09/24 12:41:26;;;;;;;2.80;2.60;;;22.60;58.40;;;;;;5009410;28;21382;-47
2022/09/24 12:44:11;;;;;;;2.80;2.60;;;22.60;58.80;;;;;;5009479;28;20794;-50
2022/09/24 12:46:55;;;;;;;3.37;3.07;;;22.70;59.40;;;;;;5007387;28;20445;-48
2022/09/24 12:49:24;;;;;;;5.13;3.10;;;22.60;59.20;;;;;;5010817;28;20483;-49
2022/09/24 12:51:54;;;;;;;3.00;2.70;;;22.60;59.40;;;;;;5012256;28;20527;-50
2022/09/24 12:54:29;;;;;;;2.77;2.57;;;22.60;59.50;;;;;;5013340;28;20834;-50
2022/09/24 12:57:13;;;;;;;3.20;2.90;;;22.60;59.60;;;;;;5011298;28;20436;-49
2022/09/24 12:59:52;;;;;;;3.13;2.93;;;22.60;59.30;;;;;;5011718;28;20463;-46
2022/09/24 13:02:22;;;;;;;3.43;2.90;;;22.60;59.40;;;;;;5012623;28;20547;-50
2022/09/24 13:05:11;;;;;;;3.80;3.50;;;22.60;59.60;;;;;;5009072;28;20444;-48
2022/09/24 13:07:39;;;;;;;3.30;3.10;;;22.60;59.60;;;;;;5003663;28;20462;-49
2022/09/24 13:10:21;;;;;;;6.73;2.93;;;22.50;59.30;;;;;;5010679;28;20451;-47
2022/09/24 13:12:47;;;;;;;4.07;3.77;;;22.60;59.40;;;;;;4999918;28;20464;-49
2022/09/24 13:15:34;;;;;;;3.33;3.13;;;22.50;59.30;;;;;;5008007;28;20453;-51
2022/09/24 13:18:05;;;;;;;3.23;3.03;;;22.60;59.60;;;;;;5007136;28;20488;-47
2022/09/24 13:20:32;;;;;;;3.83;3.43;;;22.60;59.90;;;;;;5011647;28;20471;-45
2022/09/24 13:23:11;;;;;;;3.93;3.63;;;22.60;60.30;;;;;;5012457;28;20485;-46
2022/09/24 13:25:37;;;;;;;4.30;3.30;;;22.60;60.40;;;;;;5011586;28;20441;-51